sensor_id;sensor_type;location;lat;lon;timestamp;P1;durP1;ratioP1;P2;durP2;ratioP2
15946;SDS011;8072;52.554;7.966;2023-11-21T00:01:04;17.93;;;9.57;;
15946;SDS011;8072;52.554;7.966;2023-11-21T00:03:31;16.83;;;8.93;;
15946;SDS011;8072;52.554;7.966;2023-11-21T00:05:56;24.77;;;10.67;;
15946;SDS011;8072;52.554;7.966;2023-11-21T00:08:22;20.40;;;9.63;;
15946;SDS011;8072;52.554;7.966;2023-11-21T00:10:48;17.50;;;9.53;;
15946;SDS011;8072;52.554;7.966;2023-11-21T00:13:14;18.00;;;9.27;;
15946;SDS011;8072;52.554;7.966;2023-11-21T00:15:40;21.43;;;9.47;;
15946;SDS011;8072;52.554;7.966;2023-11-21T00:18:07;19.20;;;9.00;;
15946;SDS011;8072;52.554;7.966;2023-11-21T00:20:33;17.50;;;9.50;;
15946;SDS011;8072;52.554;7.966;2023-11-21T00:23:02;17.87;;;9.73;;
15946;SDS011;8072;52.554;7.966;2023-11-21T00:25:27;14.90;;;9.07;;
15946;SDS011;8072;52.554;7.966;2023-11-21T00:27:53;16.90;;;8.90;;
15946;SDS011;8072;52.554;7.966;2023-11-21T00:30:19;16.27;;;9.10;;
15946;SDS011;8072;52.554;7.966;2023-11-21T00:32:47;14.43;;;8.30;;
15946;SDS011;8072;52.554;7.966;2023-11-21T00:35:13;18.60;;;9.60;;
15946;SDS011;8072;52.554;7.966;2023-11-21T00:37:38;18.87;;;8.83;;
15946;SDS011;8072;52.554;7.966;2023-11-21T00:40:04;20.57;;;9.27;;
15946;SDS011;8072;52.554;7.966;2023-11-21T00:42:31;16.07;;;9.30;;
15946;SDS011;8072;52.554;7.966;2023-11-21T00:44:59;18.17;;;10.17;;
15946;SDS011;8072;52.554;7.966;2023-11-21T00:47:24;22.67;;;10.37;;
15946;SDS011;8072;52.554;7.966;2023-11-21T00:49:50;20.57;;;10.20;;
15946;SDS011;8072;52.554;7.966;2023-11-21T00:52:16;18.37;;;9.80;;
15946;SDS011;8072;52.554;7.966;2023-11-21T00:54:42;17.60;;;9.80;;
15946;SDS011;8072;52.554;7.966;2023-11-21T00:57:07;25.37;;;9.97;;
15946;SDS011;8072;52.554;7.966;2023-11-21T00:59:33;23.30;;;9.63;;
15946;SDS011;8072;52.554;7.966;2023-11-21T01:02:00;20.47;;;10.03;;
15946;SDS011;8072;52.554;7.966;2023-11-21T01:04:27;18.23;;;10.20;;
15946;SDS011;8072;52.554;7.966;2023-11-21T01:06:52;22.37;;;10.80;;
15946;SDS011;8072;52.554;7.966;2023-11-21T01:09:18;20.37;;;10.30;;
15946;SDS011;8072;52.554;7.966;2023-11-21T01:11:44;23.43;;;10.97;;
15946;SDS011;8072;52.554;7.966;2023-11-21T01:14:12;18.33;;;10.43;;
15946;SDS011;8072;52.554;7.966;2023-11-21T01:16:38;24.93;;;10.97;;
15946;SDS011;8072;52.554;7.966;2023-11-21T01:19:04;25.03;;;10.87;;
15946;SDS011;8072;52.554;7.966;2023-11-21T01:21:30;25.40;;;13.47;;
15946;SDS011;8072;52.554;7.966;2023-11-21T01:23:56;33.80;;;12.93;;
15946;SDS011;8072;52.554;7.966;2023-11-21T01:26:22;33.50;;;14.90;;
15946;SDS011;8072;52.554;7.966;2023-11-21T01:28:48;31.33;;;14.00;;
15946;SDS011;8072;52.554;7.966;2023-11-21T01:31:14;29.27;;;13.20;;
15946;SDS011;8072;52.554;7.966;2023-11-21T01:33:40;30.93;;;14.10;;
15946;SDS011;8072;52.554;7.966;2023-11-21T01:36:06;30.37;;;12.30;;
15946;SDS011;8072;52.554;7.966;2023-11-21T01:38:32;33.10;;;13.97;;
15946;SDS011;8072;52.554;7.966;2023-11-21T01:40:59;38.93;;;13.73;;
15946;SDS011;8072;52.554;7.966;2023-11-21T01:43:26;36.77;;;13.47;;
15946;SDS011;8072;52.554;7.966;2023-11-21T01:45:56;30.37;;;13.20;;
15946;SDS011;8072;52.554;7.966;2023-11-21T01:48:25;41.07;;;14.27;;
15946;SDS011;8072;52.554;7.966;2023-11-21T01:50:52;39.73;;;15.60;;
15946;SDS011;8072;52.554;7.966;2023-11-21T01:53:18;41.33;;;15.90;;
15946;SDS011;8072;52.554;7.966;2023-11-21T01:55:45;54.97;;;17.37;;
15946;SDS011;8072;52.554;7.966;2023-11-21T01:58:12;51.30;;;15.90;;
15946;SDS011;8072;52.554;7.966;2023-11-21T02:00:37;43.93;;;15.30;;
15946;SDS011;8072;52.554;7.966;2023-11-21T02:03:03;37.70;;;14.47;;
15946;SDS011;8072;52.554;7.966;2023-11-21T02:05:29;42.17;;;13.50;;
15946;SDS011;8072;52.554;7.966;2023-11-21T02:07:55;39.90;;;15.20;;
15946;SDS011;8072;52.554;7.966;2023-11-21T02:10:21;36.80;;;13.70;;
15946;SDS011;8072;52.554;7.966;2023-11-21T02:12:50;34.60;;;13.40;;
15946;SDS011;8072;52.554;7.966;2023-11-21T02:15:17;38.13;;;14.53;;
15946;SDS011;8072;52.554;7.966;2023-11-21T02:17:46;37.37;;;13.17;;
15946;SDS011;8072;52.554;7.966;2023-11-21T02:20:16;35.67;;;13.23;;
15946;SDS011;8072;52.554;7.966;2023-11-21T02:22:43;36.40;;;13.37;;
15946;SDS011;8072;52.554;7.966;2023-11-21T02:25:26;35.97;;;14.27;;
15946;SDS011;8072;52.554;7.966;2023-11-21T02:27:53;39.40;;;13.40;;
15946;SDS011;8072;52.554;7.966;2023-11-21T02:30:20;37.90;;;14.23;;
15946;SDS011;8072;52.554;7.966;2023-11-21T02:32:47;34.50;;;12.43;;
15946;SDS011;8072;52.554;7.966;2023-11-21T02:35:14;33.17;;;12.43;;
15946;SDS011;8072;52.554;7.966;2023-11-21T02:37:41;33.50;;;12.83;;
15946;SDS011;8072;52.554;7.966;2023-11-21T02:40:08;39.13;;;13.90;;
15946;SDS011;8072;52.554;7.966;2023-11-21T02:42:38;36.53;;;13.87;;
15946;SDS011;8072;52.554;7.966;2023-11-21T02:45:06;34.63;;;14.10;;
15946;SDS011;8072;52.554;7.966;2023-11-21T02:47:33;32.10;;;12.93;;
15946;SDS011;8072;52.554;7.966;2023-11-21T02:49:59;32.90;;;13.10;;
15946;SDS011;8072;52.554;7.966;2023-11-21T02:52:25;29.77;;;12.63;;
15946;SDS011;8072;52.554;7.966;2023-11-21T02:54:51;30.73;;;12.73;;
15946;SDS011;8072;52.554;7.966;2023-11-21T02:57:18;29.40;;;12.83;;
15946;SDS011;8072;52.554;7.966;2023-11-21T02:59:44;28.93;;;12.33;;
15946;SDS011;8072;52.554;7.966;2023-11-21T03:02:10;34.33;;;12.93;;
15946;SDS011;8072;52.554;7.966;2023-11-21T03:04:36;37.03;;;13.57;;
15946;SDS011;8072;52.554;7.966;2023-11-21T03:07:01;28.07;;;13.20;;
15946;SDS011;8072;52.554;7.966;2023-11-21T03:09:27;32.43;;;13.67;;
15946;SDS011;8072;52.554;7.966;2023-11-21T03:11:53;30.20;;;12.93;;
15946;SDS011;8072;52.554;7.966;2023-11-21T03:14:21;30.57;;;12.63;;
15946;SDS011;8072;52.554;7.966;2023-11-21T03:16:48;38.83;;;14.47;;
15946;SDS011;8072;52.554;7.966;2023-11-21T03:19:14;28.87;;;12.40;;
15946;SDS011;8072;52.554;7.966;2023-11-21T03:21:40;30.10;;;12.80;;
15946;SDS011;8072;52.554;7.966;2023-11-21T03:24:06;30.37;;;12.70;;
15946;SDS011;8072;52.554;7.966;2023-11-21T03:26:32;34.47;;;12.63;;
15946;SDS011;8072;52.554;7.966;2023-11-21T03:29:00;32.13;;;13.23;;
15946;SDS011;8072;52.554;7.966;2023-11-21T03:31:26;26.93;;;12.77;;
15946;SDS011;8072;52.554;7.966;2023-11-21T03:33:52;30.73;;;12.67;;
15946;SDS011;8072;52.554;7.966;2023-11-21T03:36:19;34.87;;;12.97;;
15946;SDS011;8072;52.554;7.966;2023-11-21T03:38:45;33.33;;;14.20;;
15946;SDS011;8072;52.554;7.966;2023-11-21T03:41:11;36.47;;;13.27;;
15946;SDS011;8072;52.554;7.966;2023-11-21T03:43:36;27.80;;;11.97;;
15946;SDS011;8072;52.554;7.966;2023-11-21T03:46:03;33.67;;;13.07;;
15946;SDS011;8072;52.554;7.966;2023-11-21T03:48:29;30.57;;;13.13;;
15946;SDS011;8072;52.554;7.966;2023-11-21T03:50:55;32.83;;;13.20;;
15946;SDS011;8072;52.554;7.966;2023-11-21T03:53:20;30.00;;;13.23;;
15946;SDS011;8072;52.554;7.966;2023-11-21T03:55:46;32.53;;;13.93;;
15946;SDS011;8072;52.554;7.966;2023-11-21T03:58:12;30.43;;;13.23;;
15946;SDS011;8072;52.554;7.966;2023-11-21T04:00:39;29.90;;;12.47;;
15946;SDS011;8072;52.554;7.966;2023-11-21T04:03:05;28.13;;;12.37;;
15946;SDS011;8072;52.554;7.966;2023-11-21T04:05:31;30.20;;;13.07;;
15946;SDS011;8072;52.554;7.966;2023-11-21T04:07:56;30.50;;;12.03;;
15946;SDS011;8072;52.554;7.966;2023-11-21T04:10:23;32.20;;;12.63;;
15946;SDS011;8072;52.554;7.966;2023-11-21T04:12:49;30.17;;;12.07;;
15946;SDS011;8072;52.554;7.966;2023-11-21T04:15:14;29.87;;;12.30;;
15946;SDS011;8072;52.554;7.966;2023-11-21T04:17:41;27.00;;;12.60;;
15946;SDS011;8072;52.554;7.966;2023-11-21T04:20:08;32.13;;;12.93;;
15946;SDS011;8072;52.554;7.966;2023-11-21T04:22:41;30.17;;;12.87;;
15946;SDS011;8072;52.554;7.966;2023-11-21T04:25:13;30.30;;;12.63;;
15946;SDS011;8072;52.554;7.966;2023-11-21T04:27:41;30.83;;;11.93;;
15946;SDS011;8072;52.554;7.966;2023-11-21T04:30:10;28.70;;;12.03;;
15946;SDS011;8072;52.554;7.966;2023-11-21T04:32:37;28.67;;;12.17;;
15946;SDS011;8072;52.554;7.966;2023-11-21T04:35:04;28.10;;;11.83;;
15946;SDS011;8072;52.554;7.966;2023-11-21T04:37:30;24.90;;;11.67;;
15946;SDS011;8072;52.554;7.966;2023-11-21T04:39:56;26.37;;;11.73;;
15946;SDS011;8072;52.554;7.966;2023-11-21T04:42:22;25.23;;;11.23;;
15946;SDS011;8072;52.554;7.966;2023-11-21T04:44:48;28.57;;;11.70;;
15946;SDS011;8072;52.554;7.966;2023-11-21T04:47:14;26.97;;;11.97;;
15946;SDS011;8072;52.554;7.966;2023-11-21T04:49:43;25.70;;;11.60;;
15946;SDS011;8072;52.554;7.966;2023-11-21T04:52:12;26.37;;;11.57;;
15946;SDS011;8072;52.554;7.966;2023-11-21T04:54:38;27.97;;;11.10;;
15946;SDS011;8072;52.554;7.966;2023-11-21T04:57:05;24.07;;;11.20;;
15946;SDS011;8072;52.554;7.966;2023-11-21T04:59:32;28.07;;;11.77;;
15946;SDS011;8072;52.554;7.966;2023-11-21T05:01:59;28.37;;;11.90;;
15946;SDS011;8072;52.554;7.966;2023-11-21T05:04:28;23.27;;;11.03;;
15946;SDS011;8072;52.554;7.966;2023-11-21T05:06:54;25.93;;;11.43;;
15946;SDS011;8072;52.554;7.966;2023-11-21T05:09:20;28.40;;;12.20;;
15946;SDS011;8072;52.554;7.966;2023-11-21T05:11:47;28.17;;;13.00;;
15946;SDS011;8072;52.554;7.966;2023-11-21T05:14:13;29.63;;;12.47;;
15946;SDS011;8072;52.554;7.966;2023-11-21T05:16:39;25.10;;;11.83;;
15946;SDS011;8072;52.554;7.966;2023-11-21T05:19:05;26.97;;;11.73;;
15946;SDS011;8072;52.554;7.966;2023-11-21T05:21:31;27.70;;;11.97;;
15946;SDS011;8072;52.554;7.966;2023-11-21T05:23:57;26.40;;;12.53;;
15946;SDS011;8072;52.554;7.966;2023-11-21T05:26:23;27.97;;;12.80;;
15946;SDS011;8072;52.554;7.966;2023-11-21T05:28:49;26.47;;;11.43;;
15946;SDS011;8072;52.554;7.966;2023-11-21T05:31:15;28.63;;;12.67;;
15946;SDS011;8072;52.554;7.966;2023-11-21T05:33:41;25.20;;;11.40;;
15946;SDS011;8072;52.554;7.966;2023-11-21T05:36:07;26.30;;;11.90;;
15946;SDS011;8072;52.554;7.966;2023-11-21T05:38:35;28.77;;;13.17;;
15946;SDS011;8072;52.554;7.966;2023-11-21T05:41:02;27.13;;;11.60;;
15946;SDS011;8072;52.554;7.966;2023-11-21T05:43:29;23.83;;;10.83;;
15946;SDS011;8072;52.554;7.966;2023-11-21T05:45:55;25.37;;;12.03;;
15946;SDS011;8072;52.554;7.966;2023-11-21T05:48:21;26.47;;;12.00;;
15946;SDS011;8072;52.554;7.966;2023-11-21T05:50:48;29.47;;;12.63;;
15946;SDS011;8072;52.554;7.966;2023-11-21T05:53:15;29.17;;;12.07;;
15946;SDS011;8072;52.554;7.966;2023-11-21T05:55:41;25.90;;;12.03;;
15946;SDS011;8072;52.554;7.966;2023-11-21T05:58:07;24.97;;;12.13;;
15946;SDS011;8072;52.554;7.966;2023-11-21T06:00:33;27.73;;;12.27;;
15946;SDS011;8072;52.554;7.966;2023-11-21T06:02:59;30.53;;;12.57;;
15946;SDS011;8072;52.554;7.966;2023-11-21T06:05:25;27.20;;;12.60;;
15946;SDS011;8072;52.554;7.966;2023-11-21T06:07:52;26.80;;;12.40;;
15946;SDS011;8072;52.554;7.966;2023-11-21T06:10:20;30.90;;;13.20;;
15946;SDS011;8072;52.554;7.966;2023-11-21T06:12:47;29.90;;;13.17;;
15946;SDS011;8072;52.554;7.966;2023-11-21T06:15:13;29.80;;;13.73;;
15946;SDS011;8072;52.554;7.966;2023-11-21T06:17:39;29.30;;;13.23;;
15946;SDS011;8072;52.554;7.966;2023-11-21T06:20:06;31.87;;;12.43;;
15946;SDS011;8072;52.554;7.966;2023-11-21T06:22:39;26.87;;;13.03;;
15946;SDS011;8072;52.554;7.966;2023-11-21T06:25:06;26.23;;;12.20;;
15946;SDS011;8072;52.554;7.966;2023-11-21T06:27:40;26.03;;;12.33;;
15946;SDS011;8072;52.554;7.966;2023-11-21T06:30:11;26.77;;;11.70;;
15946;SDS011;8072;52.554;7.966;2023-11-21T06:32:38;26.83;;;12.70;;
15946;SDS011;8072;52.554;7.966;2023-11-21T06:35:05;28.07;;;12.50;;
15946;SDS011;8072;52.554;7.966;2023-11-21T06:37:32;28.07;;;13.50;;
15946;SDS011;8072;52.554;7.966;2023-11-21T06:39:58;29.50;;;13.10;;
15946;SDS011;8072;52.554;7.966;2023-11-21T06:42:25;31.80;;;13.30;;
15946;SDS011;8072;52.554;7.966;2023-11-21T06:44:51;31.93;;;13.50;;
15946;SDS011;8072;52.554;7.966;2023-11-21T06:47:19;26.33;;;11.90;;
15946;SDS011;8072;52.554;7.966;2023-11-21T06:49:45;26.20;;;12.37;;
15946;SDS011;8072;52.554;7.966;2023-11-21T06:52:13;28.30;;;11.97;;
15946;SDS011;8072;52.554;7.966;2023-11-21T06:54:39;28.37;;;11.47;;
15946;SDS011;8072;52.554;7.966;2023-11-21T06:57:05;27.97;;;12.30;;
15946;SDS011;8072;52.554;7.966;2023-11-21T06:59:30;27.10;;;12.50;;
15946;SDS011;8072;52.554;7.966;2023-11-21T07:01:57;25.77;;;11.10;;
15946;SDS011;8072;52.554;7.966;2023-11-21T07:04:23;26.43;;;11.47;;
15946;SDS011;8072;52.554;7.966;2023-11-21T07:06:50;29.03;;;11.67;;
15946;SDS011;8072;52.554;7.966;2023-11-21T07:09:18;24.67;;;11.40;;
15946;SDS011;8072;52.554;7.966;2023-11-21T07:11:47;27.47;;;12.07;;
15946;SDS011;8072;52.554;7.966;2023-11-21T07:14:16;34.47;;;13.27;;
15946;SDS011;8072;52.554;7.966;2023-11-21T07:16:44;26.87;;;11.77;;
15946;SDS011;8072;52.554;7.966;2023-11-21T07:19:10;29.00;;;11.80;;
15946;SDS011;8072;52.554;7.966;2023-11-21T07:21:37;31.13;;;12.23;;
15946;SDS011;8072;52.554;7.966;2023-11-21T07:24:04;30.83;;;13.17;;
15946;SDS011;8072;52.554;7.966;2023-11-21T07:26:31;28.97;;;12.40;;
15946;SDS011;8072;52.554;7.966;2023-11-21T07:28:58;31.93;;;13.30;;
15946;SDS011;8072;52.554;7.966;2023-11-21T07:31:25;30.10;;;12.40;;
15946;SDS011;8072;52.554;7.966;2023-11-21T07:33:51;42.50;;;18.00;;
15946;SDS011;8072;52.554;7.966;2023-11-21T07:36:17;36.60;;;14.50;;
15946;SDS011;8072;52.554;7.966;2023-11-21T07:38:44;38.77;;;15.00;;
15946;SDS011;8072;52.554;7.966;2023-11-21T07:41:10;36.30;;;14.30;;
15946;SDS011;8072;52.554;7.966;2023-11-21T07:43:36;39.00;;;15.10;;
15946;SDS011;8072;52.554;7.966;2023-11-21T07:46:02;40.10;;;14.40;;
15946;SDS011;8072;52.554;7.966;2023-11-21T07:48:32;35.43;;;14.93;;
15946;SDS011;8072;52.554;7.966;2023-11-21T07:50:59;44.20;;;16.50;;
15946;SDS011;8072;52.554;7.966;2023-11-21T07:53:34;45.97;;;16.03;;
15946;SDS011;8072;52.554;7.966;2023-11-21T07:56:03;51.67;;;18.27;;
15946;SDS011;8072;52.554;7.966;2023-11-21T07:58:34;43.60;;;16.83;;
15946;SDS011;8072;52.554;7.966;2023-11-21T08:01:00;39.13;;;15.33;;
15946;SDS011;8072;52.554;7.966;2023-11-21T08:03:26;40.20;;;15.60;;
15946;SDS011;8072;52.554;7.966;2023-11-21T08:05:54;39.23;;;16.40;;
15946;SDS011;8072;52.554;7.966;2023-11-21T08:08:20;40.40;;;15.67;;
15946;SDS011;8072;52.554;7.966;2023-11-21T08:10:46;37.47;;;14.70;;
15946;SDS011;8072;52.554;7.966;2023-11-21T08:13:13;27.80;;;12.47;;
15946;SDS011;8072;52.554;7.966;2023-11-21T08:15:41;30.20;;;13.97;;
15946;SDS011;8072;52.554;7.966;2023-11-21T08:18:11;31.00;;;13.23;;
15946;SDS011;8072;52.554;7.966;2023-11-21T08:20:38;26.53;;;11.90;;
15946;SDS011;8072;52.554;7.966;2023-11-21T08:23:05;20.93;;;10.27;;
15946;SDS011;8072;52.554;7.966;2023-11-21T08:25:31;22.60;;;10.97;;
15946;SDS011;8072;52.554;7.966;2023-11-21T08:27:58;17.53;;;9.27;;
15946;SDS011;8072;52.554;7.966;2023-11-21T08:30:24;16.77;;;9.33;;
15946;SDS011;8072;52.554;7.966;2023-11-21T08:32:50;19.90;;;8.67;;
15946;SDS011;8072;52.554;7.966;2023-11-21T08:35:19;16.83;;;8.93;;
15946;SDS011;8072;52.554;7.966;2023-11-21T08:37:44;19.27;;;9.57;;
15946;SDS011;8072;52.554;7.966;2023-11-21T08:40:11;19.53;;;10.63;;
15946;SDS011;8072;52.554;7.966;2023-11-21T08:42:41;18.97;;;10.00;;
15946;SDS011;8072;52.554;7.966;2023-11-21T08:45:08;23.57;;;10.80;;
15946;SDS011;8072;52.554;7.966;2023-11-21T08:47:34;24.50;;;11.93;;
15946;SDS011;8072;52.554;7.966;2023-11-21T08:50:01;20.80;;;10.57;;
15946;SDS011;8072;52.554;7.966;2023-11-21T08:52:28;17.47;;;10.30;;
15946;SDS011;8072;52.554;7.966;2023-11-21T08:54:53;20.73;;;10.00;;
15946;SDS011;8072;52.554;7.966;2023-11-21T08:57:21;21.30;;;10.67;;
15946;SDS011;8072;52.554;7.966;2023-11-21T08:59:48;19.00;;;9.47;;
15946;SDS011;8072;52.554;7.966;2023-11-21T09:02:13;18.40;;;9.60;;
15946;SDS011;8072;52.554;7.966;2023-11-21T09:04:39;23.43;;;10.80;;
15946;SDS011;8072;52.554;7.966;2023-11-21T09:07:05;17.20;;;9.57;;
15946;SDS011;8072;52.554;7.966;2023-11-21T09:09:30;15.57;;;9.03;;
15946;SDS011;8072;52.554;7.966;2023-11-21T09:11:56;15.93;;;9.57;;
15946;SDS011;8072;52.554;7.966;2023-11-21T09:14:22;16.63;;;9.10;;
15946;SDS011;8072;52.554;7.966;2023-11-21T09:16:48;17.50;;;9.17;;
15946;SDS011;8072;52.554;7.966;2023-11-21T09:19:15;18.43;;;10.00;;
15946;SDS011;8072;52.554;7.966;2023-11-21T09:21:41;15.00;;;9.73;;
15946;SDS011;8072;52.554;7.966;2023-11-21T09:24:07;20.07;;;9.97;;
15946;SDS011;8072;52.554;7.966;2023-11-21T09:26:34;18.77;;;11.00;;
15946;SDS011;8072;52.554;7.966;2023-11-21T09:28:59;19.93;;;12.23;;
15946;SDS011;8072;52.554;7.966;2023-11-21T09:31:27;17.50;;;10.43;;
15946;SDS011;8072;52.554;7.966;2023-11-21T09:33:53;14.90;;;8.50;;
15946;SDS011;8072;52.554;7.966;2023-11-21T09:36:18;13.40;;;7.93;;
15946;SDS011;8072;52.554;7.966;2023-11-21T09:38:46;12.20;;;7.30;;
15946;SDS011;8072;52.554;7.966;2023-11-21T09:41:17;13.73;;;7.70;;
15946;SDS011;8072;52.554;7.966;2023-11-21T09:44:05;13.23;;;7.43;;
15946;SDS011;8072;52.554;7.966;2023-11-21T09:46:38;12.70;;;8.00;;
15946;SDS011;8072;52.554;7.966;2023-11-21T09:49:06;13.97;;;7.20;;
15946;SDS011;8072;52.554;7.966;2023-11-21T09:51:39;13.93;;;7.87;;
15946;SDS011;8072;52.554;7.966;2023-11-21T09:54:08;13.17;;;7.70;;
15946;SDS011;8072;52.554;7.966;2023-11-21T09:56:39;13.83;;;7.83;;
15946;SDS011;8072;52.554;7.966;2023-11-21T09:59:05;11.80;;;7.30;;
15946;SDS011;8072;52.554;7.966;2023-11-21T10:01:35;11.53;;;6.97;;
15946;SDS011;8072;52.554;7.966;2023-11-21T10:04:02;12.07;;;6.60;;
15946;SDS011;8072;52.554;7.966;2023-11-21T10:06:28;11.53;;;7.93;;
15946;SDS011;8072;52.554;7.966;2023-11-21T10:08:57;14.30;;;8.00;;
15946;SDS011;8072;52.554;7.966;2023-11-21T10:11:27;13.00;;;8.53;;
15946;SDS011;8072;52.554;7.966;2023-11-21T10:13:55;13.07;;;8.30;;
15946;SDS011;8072;52.554;7.966;2023-11-21T10:16:22;13.27;;;7.50;;
15946;SDS011;8072;52.554;7.966;2023-11-21T10:18:51;14.63;;;7.87;;
15946;SDS011;8072;52.554;7.966;2023-11-21T10:21:20;12.83;;;8.23;;
15946;SDS011;8072;52.554;7.966;2023-11-21T10:23:47;13.23;;;7.70;;
15946;SDS011;8072;52.554;7.966;2023-11-21T10:26:12;14.13;;;8.60;;
15946;SDS011;8072;52.554;7.966;2023-11-21T10:28:54;13.93;;;8.70;;
15946;SDS011;8072;52.554;7.966;2023-11-21T10:31:22;12.13;;;8.07;;
15946;SDS011;8072;52.554;7.966;2023-11-21T10:33:49;14.43;;;8.30;;
15946;SDS011;8072;52.554;7.966;2023-11-21T10:36:26;13.40;;;8.30;;
15946;SDS011;8072;52.554;7.966;2023-11-21T10:38:53;14.70;;;8.30;;
15946;SDS011;8072;52.554;7.966;2023-11-21T10:41:22;14.73;;;8.40;;
15946;SDS011;8072;52.554;7.966;2023-11-21T10:43:48;14.77;;;7.80;;
15946;SDS011;8072;52.554;7.966;2023-11-21T10:46:14;11.73;;;7.63;;
15946;SDS011;8072;52.554;7.966;2023-11-21T10:48:41;16.37;;;8.30;;
15946;SDS011;8072;52.554;7.966;2023-11-21T10:51:08;14.13;;;7.77;;
15946;SDS011;8072;52.554;7.966;2023-11-21T10:53:38;12.77;;;8.27;;
15946;SDS011;8072;52.554;7.966;2023-11-21T10:56:06;13.33;;;7.77;;
15946;SDS011;8072;52.554;7.966;2023-11-21T10:58:42;11.70;;;7.33;;
15946;SDS011;8072;52.554;7.966;2023-11-21T11:01:08;12.17;;;7.23;;
15946;SDS011;8072;52.554;7.966;2023-11-21T11:03:37;11.77;;;7.77;;
15946;SDS011;8072;52.554;7.966;2023-11-21T11:06:04;10.30;;;7.03;;
15946;SDS011;8072;52.554;7.966;2023-11-21T11:08:32;9.30;;;6.53;;
15946;SDS011;8072;52.554;7.966;2023-11-21T11:11:00;12.03;;;6.70;;
15946;SDS011;8072;52.554;7.966;2023-11-21T11:13:26;10.47;;;6.60;;
15946;SDS011;8072;52.554;7.966;2023-11-21T11:15:56;10.43;;;6.40;;
15946;SDS011;8072;52.554;7.966;2023-11-21T11:18:30;10.17;;;6.70;;
15946;SDS011;8072;52.554;7.966;2023-11-21T11:21:20;9.20;;;6.50;;
15946;SDS011;8072;52.554;7.966;2023-11-21T11:34:35;9.83;;;6.23;;
15946;SDS011;8072;52.554;7.966;2023-11-21T11:37:07;10.17;;;6.73;;
15946;SDS011;8072;52.554;7.966;2023-11-21T11:39:37;9.73;;;6.13;;
15946;SDS011;8072;52.554;7.966;2023-11-21T11:42:08;10.50;;;6.60;;
15946;SDS011;8072;52.554;7.966;2023-11-21T11:47:15;13.73;;;6.30;;
15946;SDS011;8072;52.554;7.966;2023-11-21T11:49:57;8.33;;;5.60;;
15946;SDS011;8072;52.554;7.966;2023-11-21T11:52:51;7.97;;;5.87;;
15946;SDS011;8072;52.554;7.966;2023-11-21T11:55:23;8.87;;;5.60;;
15946;SDS011;8072;52.554;7.966;2023-11-21T11:57:51;7.93;;;5.57;;
15946;SDS011;8072;52.554;7.966;2023-11-21T12:00:21;9.67;;;5.60;;
15946;SDS011;8072;52.554;7.966;2023-11-21T12:02:56;8.40;;;5.90;;
15946;SDS011;8072;52.554;7.966;2023-11-21T12:05:24;8.63;;;5.83;;
15946;SDS011;8072;52.554;7.966;2023-11-21T12:07:56;9.33;;;6.40;;
15946;SDS011;8072;52.554;7.966;2023-11-21T12:10:23;7.87;;;5.97;;
15946;SDS011;8072;52.554;7.966;2023-11-21T12:12:57;10.07;;;6.60;;
15946;SDS011;8072;52.554;7.966;2023-11-21T12:15:24;8.00;;;5.47;;
15946;SDS011;8072;52.554;7.966;2023-11-21T12:17:52;10.90;;;6.70;;
15946;SDS011;8072;52.554;7.966;2023-11-21T12:20:18;9.03;;;5.77;;
15946;SDS011;8072;52.554;7.966;2023-11-21T12:22:47;10.87;;;6.30;;
15946;SDS011;8072;52.554;7.966;2023-11-21T12:25:17;11.00;;;6.30;;
15946;SDS011;8072;52.554;7.966;2023-11-21T12:27:46;10.40;;;5.73;;
15946;SDS011;8072;52.554;7.966;2023-11-21T12:30:14;8.90;;;6.27;;
15946;SDS011;8072;52.554;7.966;2023-11-21T12:32:47;10.60;;;6.50;;
15946;SDS011;8072;52.554;7.966;2023-11-21T12:35:16;10.03;;;6.57;;
15946;SDS011;8072;52.554;7.966;2023-11-21T12:37:47;9.57;;;6.30;;
15946;SDS011;8072;52.554;7.966;2023-11-21T12:40:13;10.77;;;6.17;;
15946;SDS011;8072;52.554;7.966;2023-11-21T12:42:43;9.97;;;6.00;;
15946;SDS011;8072;52.554;7.966;2023-11-21T12:47:49;10.40;;;6.80;;
15946;SDS011;8072;52.554;7.966;2023-11-21T12:50:19;9.77;;;6.77;;
15946;SDS011;8072;52.554;7.966;2023-11-21T12:52:55;11.50;;;6.73;;
15946;SDS011;8072;52.554;7.966;2023-11-21T12:55:24;10.93;;;6.70;;
15946;SDS011;8072;52.554;7.966;2023-11-21T12:57:55;9.70;;;6.30;;
15946;SDS011;8072;52.554;7.966;2023-11-21T13:00:31;9.13;;;6.10;;
15946;SDS011;8072;52.554;7.966;2023-11-21T13:02:59;10.07;;;6.37;;
15946;SDS011;8072;52.554;7.966;2023-11-21T13:05:26;11.10;;;6.23;;
15946;SDS011;8072;52.554;7.966;2023-11-21T13:07:55;9.60;;;6.40;;
15946;SDS011;8072;52.554;7.966;2023-11-21T13:10:23;9.50;;;6.73;;
15946;SDS011;8072;52.554;7.966;2023-11-21T13:12:56;10.77;;;6.83;;
15946;SDS011;8072;52.554;7.966;2023-11-21T13:15:27;9.80;;;7.40;;
15946;SDS011;8072;52.554;7.966;2023-11-21T13:17:52;11.90;;;7.80;;
15946;SDS011;8072;52.554;7.966;2023-11-21T13:20:20;10.33;;;7.57;;
15946;SDS011;8072;52.554;7.966;2023-11-21T13:22:46;12.27;;;7.97;;
15946;SDS011;8072;52.554;7.966;2023-11-21T13:25:20;11.50;;;8.23;;
15946;SDS011;8072;52.554;7.966;2023-11-21T13:27:46;11.70;;;8.13;;
15946;SDS011;8072;52.554;7.966;2023-11-21T13:30:13;12.83;;;8.20;;
15946;SDS011;8072;52.554;7.966;2023-11-21T13:32:48;11.13;;;7.53;;
15946;SDS011;8072;52.554;7.966;2023-11-21T13:35:20;10.97;;;8.03;;
15946;SDS011;8072;52.554;7.966;2023-11-21T13:37:51;16.67;;;8.87;;
15946;SDS011;8072;52.554;7.966;2023-11-21T13:40:21;10.67;;;7.37;;
15946;SDS011;8072;52.554;7.966;2023-11-21T13:42:52;12.33;;;8.67;;
15946;SDS011;8072;52.554;7.966;2023-11-21T13:45:22;10.07;;;7.53;;
15946;SDS011;8072;52.554;7.966;2023-11-21T13:47:48;10.40;;;7.30;;
15946;SDS011;8072;52.554;7.966;2023-11-21T13:50:23;12.17;;;8.37;;
15946;SDS011;8072;52.554;7.966;2023-11-21T13:52:55;11.80;;;7.87;;
15946;SDS011;8072;52.554;7.966;2023-11-21T13:55:21;11.27;;;7.97;;
15946;SDS011;8072;52.554;7.966;2023-11-21T13:57:50;11.57;;;7.97;;
15946;SDS011;8072;52.554;7.966;2023-11-21T14:00:17;10.77;;;8.17;;
15946;SDS011;8072;52.554;7.966;2023-11-21T14:03:02;10.50;;;7.53;;
15946;SDS011;8072;52.554;7.966;2023-11-21T14:05:34;12.07;;;8.30;;
15946;SDS011;8072;52.554;7.966;2023-11-21T14:08:00;9.23;;;6.97;;
15946;SDS011;8072;52.554;7.966;2023-11-21T14:10:30;10.60;;;7.57;;
15946;SDS011;8072;52.554;7.966;2023-11-21T14:13:09;12.80;;;8.20;;
15946;SDS011;8072;52.554;7.966;2023-11-21T14:15:36;12.43;;;7.70;;
15946;SDS011;8072;52.554;7.966;2023-11-21T14:18:10;12.43;;;8.20;;
15946;SDS011;8072;52.554;7.966;2023-11-21T14:20:37;13.00;;;8.53;;
15946;SDS011;8072;52.554;7.966;2023-11-21T14:23:04;10.97;;;7.70;;
15946;SDS011;8072;52.554;7.966;2023-11-21T14:25:35;11.57;;;7.77;;
15946;SDS011;8072;52.554;7.966;2023-11-21T14:28:05;10.87;;;8.23;;
15946;SDS011;8072;52.554;7.966;2023-11-21T14:30:34;13.93;;;9.20;;
15946;SDS011;8072;52.554;7.966;2023-11-21T14:33:01;11.40;;;8.23;;
15946;SDS011;8072;52.554;7.966;2023-11-21T14:35:28;11.67;;;8.17;;
15946;SDS011;8072;52.554;7.966;2023-11-21T14:37:57;12.57;;;8.50;;
15946;SDS011;8072;52.554;7.966;2023-11-21T14:40:24;14.40;;;9.27;;
15946;SDS011;8072;52.554;7.966;2023-11-21T14:42:50;16.00;;;9.50;;
15946;SDS011;8072;52.554;7.966;2023-11-21T14:45:18;13.93;;;8.80;;
15946;SDS011;8072;52.554;7.966;2023-11-21T14:47:48;15.23;;;9.60;;
15946;SDS011;8072;52.554;7.966;2023-11-21T14:50:25;12.80;;;9.37;;
15946;SDS011;8072;52.554;7.966;2023-11-21T14:53:10;13.53;;;8.47;;
15946;SDS011;8072;52.554;7.966;2023-11-21T14:55:38;11.43;;;8.23;;
15946;SDS011;8072;52.554;7.966;2023-11-21T14:58:16;11.80;;;8.20;;
15946;SDS011;8072;52.554;7.966;2023-11-21T15:00:56;12.27;;;8.10;;